PWSweather.com
Personal Weather Stations
Station Observations
KB2SBX
Sugarloaf, Sugarloaf, PA 18249

SugarloafSugarloaf, PA 18249

Lat: 41.0126685, Lon: -76.1082041

Elevation: 1030

Station Type: WS-2080

http://sugarloafpaweather.webng.com/weather.shtml

Latest ConditionsUpdated 8:30:03 AM EST Saturday, Dec 3, 2016
Currently Today's Max Today's Min Today's Average
Temperature 38.1°F3.4°C 38.1°F3.4°C 35.6°F2.0°C 36.8°F2.7°C
Dew Point 30.2°F-1.0°C 31.6°F-0.2°C 27.8°F-2.3°C 29.8°F-1.2°C
Winds 0.7 mph N1.1 kmh N 7.6 mph NNW12.2 kmh NNW - 2.8 mph 4.5 kmh
Wind Gusts 6.0 mph9.7 kmh 17.4 mph28.0 kmh - -
Humidity 73% 84% 69% 76%
Pressure 30.29 in1025.7 mb 30.29 in1025.7 mb 30.11 in1019.6 mb -
Precipitation - 0.01 in0.3 mm - -
Hour Temp Dew Point Humidity Winds Wind Gusts Pressure Precip Precip Rate Daily Precip Total
08:30 AM 38.1°F3.4°C 30.2°F-1.0°C 73% 0.7 mph N1.1 kmh N 6.0 mph9.7 kmh 30.29 in1025.7 mb 0.00 in0.0 mm 0.00 in0.0 mm 0.01 in0.3 mm
08:20 AM 37.9°F3.3°C 30.1°F-1.1°C 73% 1.6 mph W2.6 kmh W 5.4 mph8.7 kmh 30.28 in1025.4 mb 0.00 in0.0 mm 0.00 in0.0 mm 0.01 in0.3 mm
08:10 AM 37.8°F3.2°C 29.6°F-1.3°C 72% 1.6 mph SW2.6 kmh SW 9.2 mph14.8 kmh 30.27 in1025.1 mb 0.00 in0.0 mm 0.00 in0.0 mm 0.01 in0.3 mm
08:00 AM 37.4°F3.0°C 29.6°F-1.3°C 73% 5.4 mph WNW8.7 kmh WNW 9.2 mph14.8 kmh 30.26 in1024.7 mb 0.00 in0.0 mm 0.00 in0.0 mm 0.01 in0.3 mm
07:50 AM 37.4°F3.0°C 29.2°F-1.6°C 72% 1.6 mph NW2.6 kmh NW 7.6 mph12.2 kmh 30.26 in1024.7 mb 0.00 in0.0 mm 0.00 in0.0 mm 0.01 in0.3 mm
07:40 AM 37.4°F3.0°C 29.6°F-1.3°C 73% 3.1 mph NW5.0 kmh NW 10.7 mph17.2 kmh 30.25 in1024.4 mb 0.00 in0.0 mm 0.00 in0.0 mm 0.01 in0.3 mm
07:30 AM 37.4°F3.0°C 29.2°F-1.6°C 72% 7.6 mph NNW12.2 kmh NNW 10.7 mph17.2 kmh 30.24 in1024.0 mb 0.00 in0.0 mm 0.00 in0.0 mm 0.01 in0.3 mm
07:20 AM 37.4°F3.0°C 29.6°F-1.3°C 73% 3.1 mph NW5.0 kmh NW 11.4 mph18.3 kmh 30.24 in1024.0 mb 0.00 in0.0 mm 0.00 in0.0 mm 0.01 in0.3 mm
07:10 AM 37.4°F3.0°C 29.6°F-1.3°C 73% 2.2 mph NW3.5 kmh NW 3.8 mph6.1 kmh 30.22 in1023.4 mb 0.00 in0.0 mm 0.00 in0.0 mm 0.01 in0.3 mm
07:00 AM 37.2°F2.9°C 28.0°F-2.2°C 69% 3.1 mph NW5.0 kmh NW 9.2 mph14.8 kmh 30.22 in1023.4 mb 0.00 in0.0 mm 0.00 in0.0 mm 0.01 in0.3 mm
06:50 AM 37.4°F3.0°C 29.6°F-1.3°C 73% 4.5 mph W7.2 kmh W 9.2 mph14.8 kmh 30.21 in1023.0 mb 0.00 in0.0 mm 0.00 in0.0 mm 0.01 in0.3 mm
06:40 AM 37.4°F3.0°C 29.2°F-1.6°C 72% 3.8 mph W6.1 kmh W 17.4 mph28.0 kmh 30.19 in1022.4 mb 0.00 in0.0 mm 0.00 in0.0 mm 0.01 in0.3 mm
06:30 AM 37.4°F3.0°C 29.6°F-1.3°C 73% 6.0 mph W9.7 kmh W 12.1 mph19.5 kmh 30.18 in1022.0 mb 0.00 in0.0 mm 0.00 in0.0 mm 0.01 in0.3 mm
06:20 AM 37.2°F2.9°C 28.0°F-2.2°C 69% 5.4 mph NNW8.7 kmh NNW 9.8 mph15.8 kmh 30.17 in1021.7 mb 0.00 in0.0 mm 0.00 in0.0 mm 0.01 in0.3 mm
06:10 AM 37.2°F2.9°C 28.0°F-2.2°C 69% 3.1 mph NNW5.0 kmh NNW 13.0 mph20.9 kmh 30.16 in1021.3 mb 0.00 in0.0 mm 0.00 in0.0 mm 0.01 in0.3 mm
06:00 AM 37.2°F2.9°C 28.0°F-2.2°C 69% 2.2 mph W3.5 kmh W 11.4 mph18.3 kmh 30.17 in1021.7 mb 0.00 in0.0 mm 0.00 in0.0 mm 0.01 in0.3 mm
05:50 AM 37.0°F2.8°C 27.8°F-2.3°C 69% 2.2 mph NW3.5 kmh NW 10.7 mph17.2 kmh 30.21 in1023.0 mb 0.00 in0.0 mm 0.00 in0.0 mm 0.01 in0.3 mm
05:40 AM 36.9°F2.7°C 28.0°F-2.2°C 70% 1.6 mph W2.6 kmh W 13.0 mph20.9 kmh 30.26 in1024.7 mb 0.00 in0.0 mm 0.00 in0.0 mm 0.01 in0.3 mm
05:30 AM 36.7°F2.6°C 28.2°F-2.1°C 71% 1.6 mph WSW2.6 kmh WSW 8.3 mph13.4 kmh 30.28 in1025.4 mb 0.00 in0.0 mm 0.00 in0.0 mm 0.01 in0.3 mm
05:20 AM 36.7°F2.6°C 28.2°F-2.1°C 71% 1.6 mph WSW2.6 kmh WSW 13.0 mph20.9 kmh 30.28 in1025.4 mb 0.00 in0.0 mm 0.00 in0.0 mm 0.01 in0.3 mm
05:10 AM 36.5°F2.5°C 28.3°F-2.1°C 72% 5.4 mph NNW8.7 kmh NNW 9.8 mph15.8 kmh 30.27 in1025.1 mb 0.00 in0.0 mm 0.00 in0.0 mm 0.01 in0.3 mm
05:00 AM 36.3°F2.4°C 28.5°F-1.9°C 73% 1.6 mph WNW2.6 kmh WNW 9.8 mph15.8 kmh 30.27 in1025.1 mb 0.00 in0.0 mm 0.00 in0.0 mm 0.01 in0.3 mm
04:50 AM 36.1°F2.3°C 28.7°F-1.8°C 74% 3.8 mph W6.1 kmh W 13.6 mph21.9 kmh 30.27 in1025.1 mb 0.00 in0.0 mm 0.00 in0.0 mm 0.01 in0.3 mm
04:40 AM 36.1°F2.3°C 30.0°F-1.1°C 78% 3.1 mph E5.0 kmh E 11.4 mph18.3 kmh 30.25 in1024.4 mb 0.00 in0.0 mm 0.00 in0.0 mm 0.01 in0.3 mm
04:30 AM 36.1°F2.3°C 30.0°F-1.1°C 78% 1.6 mph WNW2.6 kmh WNW 9.8 mph15.8 kmh 30.25 in1024.4 mb 0.00 in0.0 mm 0.00 in0.0 mm 0.01 in0.3 mm
04:20 AM 36.1°F2.3°C 30.3°F-0.9°C 79% 1.6 mph WSW2.6 kmh WSW 13.6 mph21.9 kmh 30.25 in1024.4 mb 0.00 in0.0 mm 0.00 in0.0 mm 0.01 in0.3 mm
04:10 AM 36.1°F2.3°C 30.3°F-0.9°C 79% 3.8 mph WSW6.1 kmh WSW 8.3 mph13.4 kmh 30.24 in1024.0 mb 0.00 in0.0 mm 0.00 in0.0 mm 0.01 in0.3 mm
04:00 AM 36.0°F2.2°C 30.4°F-0.9°C 80% 3.8 mph W6.1 kmh W 10.7 mph17.2 kmh 30.23 in1023.7 mb 0.00 in0.0 mm 0.00 in0.0 mm 0.01 in0.3 mm
03:50 AM 36.0°F2.2°C 30.7°F-0.7°C 81% 1.6 mph W2.6 kmh W 5.4 mph8.7 kmh 30.22 in1023.4 mb 0.00 in0.0 mm 0.00 in0.0 mm 0.01 in0.3 mm
03:40 AM 36.0°F2.2°C 30.7°F-0.7°C 81% 3.8 mph WSW6.1 kmh WSW 7.6 mph12.2 kmh 30.22 in1023.4 mb 0.00 in0.0 mm 0.00 in0.0 mm 0.01 in0.3 mm
03:30 AM 36.0°F2.2°C 30.7°F-0.7°C 81% 4.5 mph W7.2 kmh W 8.3 mph13.4 kmh 30.21 in1023.0 mb 0.00 in0.0 mm 0.00 in0.0 mm 0.01 in0.3 mm
03:20 AM 36.0°F2.2°C 31.0°F-0.6°C 82% 3.1 mph NW5.0 kmh NW 12.1 mph19.5 kmh 30.21 in1023.0 mb 0.01 in0.3 mm 0.00 in0.0 mm 0.01 in0.3 mm
03:10 AM 36.0°F2.2°C 31.3°F-0.4°C 83% 3.1 mph SW5.0 kmh SW 6.9 mph11.1 kmh 30.21 in1023.0 mb 0.01 in0.3 mm 0.00 in0.0 mm 0.01 in0.3 mm
03:00 AM 36.0°F2.2°C 31.6°F-0.2°C 84% 1.6 mph WNW2.6 kmh WNW 6.9 mph11.1 kmh 30.21 in1023.0 mb 0.01 in0.3 mm 0.00 in0.0 mm 0.01 in0.3 mm
02:50 AM 35.8°F2.1°C 31.4°F-0.3°C 84% 3.1 mph WSW5.0 kmh WSW 6.0 mph9.7 kmh 30.21 in1023.0 mb 0.01 in0.3 mm 0.00 in0.0 mm 0.01 in0.3 mm
02:40 AM 35.6°F2.0°C 31.0°F-0.6°C 83% 1.6 mph SW2.6 kmh SW 7.6 mph12.2 kmh 30.20 in1022.7 mb 0.01 in0.3 mm 0.00 in0.0 mm 0.01 in0.3 mm
02:30 AM 35.6°F2.0°C 30.7°F-0.7°C 82% 2.2 mph W3.5 kmh W 6.9 mph11.1 kmh 30.19 in1022.4 mb 0.01 in0.3 mm 0.06 in1.5 mm 0.01 in0.3 mm
02:20 AM 35.6°F2.0°C 30.4°F-0.9°C 81% 1.6 mph NW2.6 kmh NW 10.7 mph17.2 kmh 30.19 in1022.4 mb 0.00 in0.0 mm 0.00 in0.0 mm 0.00 in0.0 mm
02:10 AM 36.1°F2.3°C 30.3°F-0.9°C 79% 1.6 mph WSW2.6 kmh WSW 7.6 mph12.2 kmh 30.18 in1022.0 mb 0.00 in0.0 mm 0.00 in0.0 mm 0.00 in0.0 mm
02:00 AM 36.9°F2.7°C 30.7°F-0.7°C 78% 5.4 mph NW8.7 kmh NW 10.7 mph17.2 kmh 30.18 in1022.0 mb 0.00 in0.0 mm 0.00 in0.0 mm 0.00 in0.0 mm
01:50 AM 37.2°F2.9°C 30.0°F-1.1°C 75% Calm Calm 7.6 mph12.2 kmh 30.17 in1021.7 mb 0.00 in0.0 mm 0.00 in0.0 mm 0.00 in0.0 mm
01:40 AM 37.2°F2.9°C 30.0°F-1.1°C 75% 6.0 mph NNW9.7 kmh NNW 7.6 mph12.2 kmh 30.16 in1021.3 mb 0.00 in0.0 mm 0.00 in0.0 mm 0.00 in0.0 mm
01:30 AM 37.4°F3.0°C 30.9°F-0.6°C 77% 1.6 mph W2.6 kmh W 6.0 mph9.7 kmh 30.15 in1021.0 mb 0.00 in0.0 mm 0.00 in0.0 mm 0.00 in0.0 mm
01:20 AM 37.6°F3.1°C 30.7°F-0.7°C 76% 1.6 mph WNW2.6 kmh WNW 6.0 mph9.7 kmh 30.14 in1020.7 mb 0.00 in0.0 mm 0.00 in0.0 mm 0.00 in0.0 mm
01:10 AM 37.6°F3.1°C 30.7°F-0.7°C 76% 2.2 mph SW3.5 kmh SW 6.0 mph9.7 kmh 30.13 in1020.3 mb 0.00 in0.0 mm 0.00 in0.0 mm 0.00 in0.0 mm
01:00 AM 37.6°F3.1°C 30.7°F-0.7°C 76% 0.7 mph WNW1.1 kmh WNW 6.9 mph11.1 kmh 30.13 in1020.3 mb 0.00 in0.0 mm 0.00 in0.0 mm 0.00 in0.0 mm
12:50 AM 37.4°F3.0°C 30.9°F-0.6°C 77% 2.2 mph WSW3.5 kmh WSW 4.5 mph7.2 kmh 30.12 in1020.0 mb 0.00 in0.0 mm 0.00 in0.0 mm 0.00 in0.0 mm
12:40 AM 37.4°F3.0°C 30.9°F-0.6°C 77% Calm Calm 4.5 mph7.2 kmh 30.12 in1020.0 mb 0.00 in0.0 mm 0.00 in0.0 mm 0.00 in0.0 mm
12:30 AM 37.2°F2.9°C 29.4°F-1.4°C 73% 1.6 mph WSW2.6 kmh WSW 6.0 mph9.7 kmh 30.12 in1020.0 mb 0.00 in0.0 mm 0.00 in0.0 mm 0.00 in0.0 mm
12:20 AM 37.2°F2.9°C 29.4°F-1.4°C 73% 3.8 mph W6.1 kmh W 9.8 mph15.8 kmh 30.12 in1020.0 mb 0.00 in0.0 mm 0.00 in0.0 mm 0.00 in0.0 mm
12:10 AM 37.4°F3.0°C 30.5°F-0.8°C 76% 3.1 mph WNW5.0 kmh WNW 9.8 mph15.8 kmh 30.11 in1019.6 mb 0.00 in0.0 mm 0.00 in0.0 mm 0.00 in0.0 mm
12:00 AM 37.4°F3.0°C 30.5°F-0.8°C 76% 3.1 mph WNW5.0 kmh WNW 6.9 mph11.1 kmh 30.11 in1019.6 mb 0.00 in0.0 mm 0.00 in0.0 mm 0.00 in0.0 mm